createdAt,value
2018-02-25T00:02:23.266Z,3.33
2018-02-25T00:04:50.857Z,3.27
2018-02-25T00:07:18.453Z,3.30
2018-02-25T00:09:46.803Z,3.73
2018-02-25T00:12:14.396Z,3.40
2018-02-25T00:14:41.993Z,3.60
2018-02-25T00:17:09.598Z,3.17
2018-02-25T00:19:37.160Z,3.63
2018-02-25T00:22:04.746Z,3.03
2018-02-25T00:24:32.320Z,3.30
2018-02-25T00:27:00.719Z,3.33
2018-02-25T00:29:29.095Z,3.20
2018-02-25T00:31:57.421Z,3.30
2018-02-25T00:34:24.995Z,3.20
2018-02-25T00:36:52.591Z,3.30
2018-02-25T00:39:20.204Z,3.60
2018-02-25T00:41:47.831Z,3.57
2018-02-25T00:44:15.405Z,3.30
2018-02-25T00:46:43.739Z,3.60
2018-02-25T00:49:11.325Z,3.00
2018-02-25T00:51:38.933Z,3.43
2018-02-25T00:54:07.317Z,3.10
2018-02-25T00:56:34.926Z,3.43
2018-02-25T00:59:02.511Z,3.00
2018-02-25T01:01:30.094Z,3.57
2018-02-25T01:03:58.464Z,3.40
2018-02-25T01:06:26.026Z,3.50
2018-02-25T01:08:53.596Z,3.33
2018-02-25T01:11:21.194Z,3.57
2018-02-25T01:13:48.764Z,3.30
2018-02-25T01:16:16.382Z,3.00
2018-02-25T01:18:44.014Z,3.30
2018-02-25T01:21:11.617Z,3.63
2018-02-25T01:23:39.189Z,3.67
2018-02-25T01:26:06.804Z,3.77
2018-02-25T01:28:34.390Z,3.67
2018-02-25T01:31:01.958Z,3.90
2018-02-25T01:33:29.594Z,3.30
2018-02-25T01:35:57.189Z,3.53
2018-02-25T01:38:24.808Z,3.50
2018-02-25T01:40:52.464Z,3.70
2018-02-25T01:43:20.824Z,3.83
2018-02-25T01:45:48.431Z,3.80
2018-02-25T01:48:16.010Z,3.53
2018-02-25T01:51:04.140Z,3.70
2018-02-25T01:53:31.765Z,3.90
2018-02-25T01:55:59.344Z,3.63
2018-02-25T01:58:27.695Z,3.87
2018-02-25T02:00:55.315Z,3.60
2018-02-25T02:03:22.944Z,4.40
2018-02-25T02:05:50.540Z,3.87
2018-02-25T02:08:18.118Z,4.23
2018-02-25T02:10:46.463Z,3.63
2018-02-25T02:13:14.805Z,3.60
2018-02-25T02:15:42.392Z,3.80
2018-02-25T02:18:09.951Z,3.67
2018-02-25T02:20:37.554Z,3.97
2018-02-25T02:23:05.152Z,4.10
2018-02-25T02:25:32.724Z,3.70
2018-02-25T02:28:00.312Z,3.70
2018-02-25T02:30:27.924Z,3.93
2018-02-25T02:32:55.528Z,3.50
2018-02-25T02:35:23.189Z,4.10
2018-02-25T02:37:50.753Z,4.20
2018-02-25T02:40:18.329Z,4.17
2018-02-25T02:42:45.950Z,4.50
2018-02-25T02:45:13.551Z,3.50
2018-02-25T02:47:41.138Z,3.90
2018-02-25T02:50:08.743Z,4.23
2018-02-25T02:52:36.358Z,3.70
2018-02-25T02:55:03.982Z,3.80
2018-02-25T02:57:31.573Z,3.90
2018-02-25T02:59:59.168Z,3.60
2018-02-25T03:02:26.777Z,3.93
2018-02-25T03:04:54.396Z,4.37
2018-02-25T03:07:22.011Z,4.33
2018-02-25T03:09:49.598Z,4.27
2018-02-25T03:12:17.266Z,4.07
2018-02-25T03:14:44.872Z,4.20
2018-02-25T03:17:13.242Z,4.03
2018-02-25T03:19:41.799Z,4.53
2018-02-25T03:22:09.383Z,4.70
2018-02-25T03:24:36.957Z,4.33
2018-02-25T03:27:04.555Z,4.03
2018-02-25T03:29:32.137Z,4.63
2018-02-25T03:31:59.723Z,4.23
2018-02-25T03:34:27.334Z,4.20
2018-02-25T03:36:54.933Z,4.73
2018-02-25T03:39:22.566Z,4.87
2018-02-25T03:41:50.194Z,4.23
2018-02-25T03:44:17.769Z,4.23
2018-02-25T03:46:45.380Z,4.07
2018-02-25T03:49:12.968Z,4.67
2018-02-25T03:51:40.557Z,4.50
2018-02-25T03:54:08.140Z,4.43
2018-02-25T03:56:35.776Z,4.27
2018-02-25T03:59:03.364Z,4.60
2018-02-25T04:01:30.926Z,4.27
2018-02-25T04:03:58.521Z,4.60
2018-02-25T04:06:26.859Z,4.33
2018-02-25T04:08:54.456Z,4.17
2018-02-25T04:11:22.049Z,4.00
2018-02-25T04:13:50.412Z,4.10
2018-02-25T04:16:18.802Z,4.00
2018-02-25T04:18:47.255Z,4.57
2018-02-25T04:21:14.833Z,4.27
2018-02-25T04:23:42.815Z,4.60
2018-02-25T04:26:10.409Z,3.90
2018-02-25T04:28:38.000Z,4.60
2018-02-25T04:31:05.599Z,4.17
2018-02-25T04:33:33.202Z,5.20
2018-02-25T04:36:01.567Z,4.37
2018-02-25T04:38:29.906Z,4.37
2018-02-25T04:40:57.510Z,4.27
2018-02-25T04:43:25.112Z,4.23
2018-02-25T04:45:52.700Z,4.63
2018-02-25T04:48:20.307Z,4.80
2018-02-25T04:50:48.675Z,4.10
2018-02-25T04:53:16.323Z,4.60
2018-02-25T04:55:43.978Z,4.23
2018-02-25T04:58:11.649Z,4.33
2018-02-25T05:00:39.260Z,4.37
2018-02-25T05:03:06.843Z,4.30
2018-02-25T05:05:34.469Z,4.57
2018-02-25T05:08:02.075Z,4.07
2018-02-25T05:10:30.555Z,4.00
2018-02-25T05:12:58.918Z,4.60
2018-02-25T05:15:26.519Z,4.47
2018-02-25T05:17:54.093Z,4.43
2018-02-25T05:20:21.681Z,4.50
2018-02-25T05:22:49.269Z,4.40
2018-02-25T05:25:16.876Z,4.53
2018-02-25T05:27:44.453Z,4.27
2018-02-25T05:30:12.089Z,4.87
2018-02-25T05:32:40.471Z,4.93
2018-02-25T05:35:08.842Z,4.97
2018-02-25T05:37:36.483Z,5.03
2018-02-25T05:40:04.067Z,4.50
2018-02-25T05:42:31.656Z,4.67
2018-02-25T05:45:01.546Z,4.73
2018-02-25T05:47:29.146Z,4.67
2018-02-25T05:49:56.771Z,4.80
2018-02-25T05:52:24.389Z,4.07
2018-02-25T05:54:52.072Z,4.70
2018-02-25T05:57:19.751Z,4.20
2018-02-25T05:59:47.362Z,4.47
2018-02-25T06:02:15.720Z,4.27
2018-02-25T06:04:43.288Z,4.17
2018-02-25T06:07:10.864Z,4.27
2018-02-25T06:09:38.446Z,4.10
2018-02-25T06:12:06.784Z,4.50
2018-02-25T06:14:34.346Z,5.03
2018-02-25T06:17:01.945Z,4.30
2018-02-25T06:19:30.336Z,4.90
2018-02-25T06:21:58.693Z,4.30
2018-02-25T06:24:26.275Z,4.27
2018-02-25T06:26:53.884Z,4.40
2018-02-25T06:29:21.493Z,4.43
2018-02-25T06:31:49.080Z,4.87
2018-02-25T06:34:17.427Z,4.40
2018-02-25T06:36:45.016Z,4.47
2018-02-25T06:39:12.606Z,4.23
2018-02-25T06:41:40.194Z,4.17
2018-02-25T06:44:08.434Z,4.10
2018-02-25T06:46:36.804Z,5.00
2018-02-25T06:49:04.407Z,4.80
2018-02-25T06:51:32.008Z,4.40
2018-02-25T06:53:59.595Z,4.53
2018-02-25T06:56:27.237Z,4.97
2018-02-25T06:58:54.839Z,4.70
2018-02-25T07:01:23.197Z,4.47
2018-02-25T07:03:50.823Z,5.13
2018-02-25T07:06:18.476Z,4.10
2018-02-25T07:08:46.048Z,4.70
2018-02-25T07:11:14.460Z,4.53
2018-02-25T07:13:42.048Z,4.70
2018-02-25T07:16:09.658Z,5.10
2018-02-25T07:18:37.264Z,5.57
2018-02-25T07:21:04.916Z,4.90
2018-02-25T07:23:32.506Z,4.80
2018-02-25T07:26:00.092Z,4.73
2018-02-25T07:28:28.134Z,4.70
2018-02-25T07:30:56.590Z,5.00
2018-02-25T07:33:24.162Z,4.73
2018-02-25T07:35:52.518Z,5.73
2018-02-25T07:38:20.101Z,5.20
2018-02-25T07:40:47.730Z,4.50
2018-02-25T07:43:15.297Z,4.60
2018-02-25T07:45:43.665Z,4.60
2018-02-25T07:48:11.270Z,5.10
2018-02-25T07:50:38.864Z,5.60
2018-02-25T07:53:06.477Z,5.17
2018-02-25T07:55:34.089Z,4.73
2018-02-25T07:58:02.117Z,5.00
2018-02-25T08:00:31.889Z,4.80
2018-02-25T08:02:59.464Z,4.87
2018-02-25T08:05:27.070Z,4.97
2018-02-25T08:07:55.450Z,5.43
2018-02-25T08:10:23.801Z,5.10
2018-02-25T08:12:51.424Z,5.07
2018-02-25T08:15:19.009Z,4.90
2018-02-25T08:17:46.581Z,5.10
2018-02-25T08:20:14.268Z,5.33
2018-02-25T08:22:41.861Z,5.50
2018-02-25T08:25:10.217Z,4.63
2018-02-25T08:27:37.825Z,5.20
2018-02-25T08:30:06.181Z,4.73
2018-02-25T08:32:33.747Z,4.90
2018-02-25T08:35:01.308Z,4.73
2018-02-25T08:37:29.485Z,4.93
2018-02-25T08:39:57.108Z,4.97
2018-02-25T08:42:24.692Z,4.60
2018-02-25T08:44:52.257Z,5.10
2018-02-25T08:47:19.854Z,5.10
2018-02-25T08:49:47.422Z,4.53
2018-02-25T08:52:15.772Z,4.57
2018-02-25T08:54:43.360Z,5.03
2018-02-25T08:57:10.962Z,4.90
2018-02-25T08:59:38.574Z,4.80
2018-02-25T09:02:06.168Z,4.73
2018-02-25T09:04:33.753Z,5.63
2018-02-25T09:07:01.360Z,5.33
2018-02-25T09:09:29.049Z,4.70
2018-02-25T09:11:56.661Z,4.27
2018-02-25T09:14:24.255Z,4.63
2018-02-25T09:16:51.902Z,4.70
2018-02-25T09:19:19.508Z,5.20
2018-02-25T09:21:47.101Z,4.37
2018-02-25T09:24:15.471Z,4.60
2018-02-25T09:26:43.075Z,4.47
2018-02-25T09:29:10.652Z,4.80
2018-02-25T09:31:38.268Z,4.23
2018-02-25T09:34:05.854Z,4.13
2018-02-25T09:36:34.216Z,4.03
2018-02-25T09:39:02.569Z,4.57
2018-02-25T09:41:30.192Z,4.53
2018-02-25T09:43:57.772Z,4.50
2018-02-25T09:46:25.357Z,4.60
2018-02-25T09:48:52.956Z,4.80
2018-02-25T09:51:20.581Z,4.80
2018-02-25T09:53:48.182Z,5.07
2018-02-25T09:56:15.769Z,4.63
2018-02-25T09:58:44.139Z,4.50
2018-02-25T10:01:11.782Z,4.50
2018-02-25T10:03:39.420Z,4.30
2018-02-25T10:06:06.981Z,4.73
2018-02-25T10:08:35.346Z,4.70
2018-02-25T10:11:02.951Z,4.50
2018-02-25T10:13:30.547Z,4.20
2018-02-25T10:15:58.114Z,4.27
2018-02-25T10:18:25.716Z,4.53
2018-02-25T10:20:53.340Z,4.20
2018-02-25T10:23:20.955Z,4.63
2018-02-25T10:25:48.548Z,3.87
2018-02-25T10:28:16.222Z,4.43
2018-02-25T10:30:43.816Z,4.20
2018-02-25T10:33:12.213Z,3.83
2018-02-25T10:35:40.561Z,4.00
2018-02-25T10:38:08.143Z,4.43
2018-02-25T10:40:35.748Z,4.50
2018-02-25T10:43:03.351Z,3.90
2018-02-25T10:45:30.923Z,4.00
2018-02-25T10:47:58.500Z,4.20
2018-02-25T10:50:26.090Z,3.90
2018-02-25T10:52:53.679Z,4.30
2018-02-25T10:55:21.256Z,4.60
2018-02-25T10:57:48.818Z,3.97
2018-02-25T11:00:21.914Z,3.70
2018-02-25T11:02:49.478Z,4.40
2018-02-25T11:05:17.086Z,4.40
2018-02-25T11:07:44.662Z,4.53
2018-02-25T11:10:12.322Z,3.93
2018-02-25T11:12:39.893Z,4.23
2018-02-25T11:15:08.282Z,4.50
2018-02-25T11:17:35.816Z,3.80
2018-02-25T11:20:03.410Z,4.30
2018-02-25T11:22:30.976Z,3.70
2018-02-25T11:24:59.109Z,4.40
2018-02-25T11:27:26.735Z,4.00
2018-02-25T11:29:54.315Z,3.77
2018-02-25T11:32:21.968Z,3.97
2018-02-25T11:34:49.535Z,3.77
2018-02-25T11:37:17.130Z,4.07
2018-02-25T11:39:44.738Z,3.90
2018-02-25T11:42:13.086Z,4.10
2018-02-25T11:44:40.712Z,4.07
2018-02-25T11:47:08.290Z,3.80
2018-02-25T11:49:35.868Z,4.10
2018-02-25T11:52:03.477Z,3.67
2018-02-25T11:54:31.874Z,3.70
2018-02-25T11:56:59.439Z,3.47
2018-02-25T11:59:27.033Z,4.03
2018-02-25T12:01:54.617Z,3.67
2018-02-25T12:04:22.187Z,3.70
2018-02-25T12:06:49.774Z,3.60
2018-02-25T12:09:17.361Z,4.60
2018-02-25T12:11:45.696Z,3.80
2018-02-25T12:14:13.274Z,3.70
2018-02-25T12:16:40.881Z,3.90
2018-02-25T12:19:08.458Z,3.70
2018-02-25T12:21:36.056Z,3.43
2018-02-25T12:24:03.643Z,3.43
2018-02-25T12:26:32.010Z,3.20
2018-02-25T12:28:59.685Z,3.43
2018-02-25T12:31:27.254Z,3.60
2018-02-25T12:33:55.620Z,3.50
2018-02-25T12:36:23.970Z,3.37
2018-02-25T12:38:51.554Z,3.13
2018-02-25T12:41:19.184Z,3.70
2018-02-25T12:43:46.775Z,3.30
2018-02-25T12:46:14.376Z,3.20
2018-02-25T12:48:41.980Z,3.20
2018-02-25T12:51:09.696Z,3.23
2018-02-25T12:53:37.307Z,3.17
2018-02-25T12:56:04.892Z,3.07
2018-02-25T12:58:32.480Z,2.87
2018-02-25T13:01:00.074Z,3.40
2018-02-25T13:03:27.723Z,2.90
2018-02-25T13:05:55.282Z,3.33
2018-02-25T13:08:22.890Z,2.70
2018-02-25T13:10:51.258Z,3.07
2018-02-25T13:13:18.869Z,3.10
2018-02-25T13:15:46.442Z,3.00
2018-02-25T13:18:14.018Z,2.77
2018-02-25T13:20:41.596Z,3.13
2018-02-25T13:23:09.587Z,2.90
2018-02-25T13:25:37.924Z,3.10
2018-02-25T13:28:05.502Z,3.17
2018-02-25T13:30:33.098Z,2.83
2018-02-25T13:33:01.959Z,2.83
2018-02-25T13:35:29.618Z,3.00
2018-02-25T13:37:57.215Z,2.67
2018-02-25T13:40:24.799Z,2.77
2018-02-25T13:42:53.282Z,2.87
2018-02-25T13:45:21.632Z,2.83
2018-02-25T13:47:49.236Z,3.50
2018-02-25T13:50:17.571Z,3.07
2018-02-25T13:52:45.200Z,2.53
2018-02-25T13:55:12.789Z,3.00
2018-02-25T13:57:40.374Z,2.90
2018-02-25T14:00:07.957Z,3.03
2018-02-25T14:02:35.991Z,3.40
2018-02-25T14:05:03.694Z,2.67
2018-02-25T14:07:31.220Z,2.60
2018-02-25T14:09:58.813Z,2.70
2018-02-25T14:12:26.361Z,2.73
2018-02-25T14:14:54.043Z,2.60
2018-02-25T14:17:21.613Z,2.77
2018-02-25T14:19:49.158Z,2.87
2018-02-25T14:22:16.755Z,2.90
2018-02-25T14:24:45.088Z,2.80
2018-02-25T14:27:12.673Z,2.87
2018-02-25T14:29:40.719Z,3.00
2018-02-25T14:32:08.308Z,2.70
2018-02-25T14:34:35.940Z,3.00
2018-02-25T14:37:03.528Z,2.80
2018-02-25T14:39:31.138Z,2.70
2018-02-25T14:41:58.703Z,3.00
2018-02-25T14:44:26.371Z,3.27
2018-02-25T14:46:53.958Z,3.10
2018-02-25T14:49:21.557Z,2.90
2018-02-25T14:51:49.140Z,2.90
2018-02-25T14:54:16.788Z,3.17
2018-02-25T14:56:44.360Z,3.10
2018-02-25T14:59:11.946Z,3.00
2018-02-25T15:01:39.615Z,2.97
2018-02-25T15:04:07.200Z,2.93
2018-02-25T15:06:34.809Z,3.00
2018-02-25T15:09:03.213Z,3.13
2018-02-25T15:11:30.803Z,3.13
2018-02-25T15:13:59.172Z,2.90
2018-02-25T15:16:26.775Z,2.90
2018-02-25T15:18:54.386Z,2.87
2018-02-25T15:21:22.044Z,2.87
2018-02-25T15:23:49.635Z,2.93
2018-02-25T15:26:17.208Z,2.90
2018-02-25T15:28:44.789Z,3.10
2018-02-25T15:31:12.385Z,2.90
2018-02-25T15:33:39.983Z,2.77
2018-02-25T15:36:07.573Z,2.93
2018-02-25T15:38:35.935Z,2.80
2018-02-25T15:41:03.532Z,3.80
2018-02-25T15:43:31.216Z,3.00
2018-02-25T15:45:59.585Z,2.70
2018-02-25T15:48:27.921Z,3.30
2018-02-25T15:50:55.493Z,2.93
2018-02-25T15:53:23.806Z,3.20
2018-02-25T15:55:51.467Z,3.00
2018-02-25T15:58:19.018Z,3.17
2018-02-25T16:00:46.616Z,3.10
2018-02-25T16:03:15.600Z,3.23
2018-02-25T16:05:43.191Z,3.27
2018-02-25T16:08:10.812Z,3.37
2018-02-25T16:10:38.452Z,3.60
2018-02-25T16:13:06.043Z,3.40
2018-02-25T16:15:33.655Z,3.37
2018-02-25T16:18:01.251Z,3.30
2018-02-25T16:20:28.839Z,3.30
2018-02-25T16:22:56.421Z,3.47
2018-02-25T16:25:24.777Z,3.27
2018-02-25T16:27:52.393Z,3.67
2018-02-25T16:30:20.715Z,3.30
2018-02-25T16:32:48.378Z,3.17
2018-02-25T16:35:15.984Z,3.07
2018-02-25T16:37:44.335Z,3.27
2018-02-25T16:40:11.913Z,3.57
2018-02-25T16:42:39.518Z,3.50
2018-02-25T16:45:07.834Z,3.60
2018-02-25T16:47:35.415Z,3.13
2018-02-25T16:50:03.097Z,3.60
2018-02-25T16:52:30.740Z,3.07
2018-02-25T16:54:58.351Z,3.40
2018-02-25T16:57:26.010Z,3.33
2018-02-25T16:59:53.614Z,3.70
2018-02-25T17:02:21.209Z,4.40
2018-02-25T17:04:48.809Z,4.00
2018-02-25T17:07:16.411Z,3.40
2018-02-25T17:09:44.081Z,3.20
2018-02-25T17:12:11.718Z,3.57
2018-02-25T17:14:40.104Z,3.17
2018-02-25T17:17:08.451Z,3.07
2018-02-25T17:19:36.094Z,3.13
2018-02-25T17:22:03.733Z,3.13
2018-02-25T17:24:31.340Z,3.00
2018-02-25T17:26:58.975Z,2.80
2018-02-25T17:29:26.618Z,3.00
2018-02-25T17:31:54.178Z,3.40
2018-02-25T17:34:22.159Z,2.93
2018-02-25T17:36:49.790Z,3.50
2018-02-25T17:39:18.291Z,3.37
2018-02-25T17:41:45.885Z,3.90
2018-02-25T17:44:13.471Z,3.40
2018-02-25T17:46:41.079Z,3.53
2018-02-25T17:49:08.745Z,3.40
2018-02-25T17:51:36.342Z,3.67
2018-02-25T17:54:03.932Z,3.60
2018-02-25T17:56:31.579Z,3.27
2018-02-25T17:58:59.164Z,3.40
2018-02-25T18:01:26.756Z,3.60
2018-02-25T18:03:54.337Z,3.60
2018-02-25T18:06:21.907Z,3.93
2018-02-25T18:08:49.479Z,3.60
2018-02-25T18:11:17.832Z,3.67
2018-02-25T18:13:45.449Z,3.60
2018-02-25T18:16:13.040Z,3.70
2018-02-25T18:18:40.622Z,3.20
2018-02-25T18:21:08.207Z,3.87
2018-02-25T18:23:35.799Z,3.57
2018-02-25T18:26:03.406Z,4.07
2018-02-25T18:28:31.811Z,4.60
2018-02-25T18:30:59.409Z,6.30
2018-02-25T18:33:27.769Z,4.60
2018-02-25T18:35:55.380Z,3.53
2018-02-25T18:38:23.429Z,3.60
2018-02-25T18:40:51.767Z,3.60
2018-02-25T18:43:19.377Z,3.70
2018-02-25T18:45:48.288Z,4.03
2018-02-25T18:48:15.906Z,3.77
2018-02-25T18:50:43.504Z,3.43
2018-02-25T18:53:11.866Z,3.30
2018-02-25T18:55:39.457Z,3.53
2018-02-25T18:58:07.835Z,4.00
2018-02-25T19:00:35.436Z,3.60
2018-02-25T19:03:03.027Z,3.90
2018-02-25T19:05:31.258Z,3.87
2018-02-25T19:07:58.883Z,3.70
2018-02-25T19:10:26.502Z,3.70
2018-02-25T19:12:54.055Z,3.60
2018-02-25T19:15:22.424Z,3.80
2018-02-25T19:17:50.849Z,3.13
2018-02-25T19:20:18.488Z,3.77
2018-02-25T19:22:46.056Z,3.70
2018-02-25T19:25:13.667Z,3.50
2018-02-25T19:27:41.292Z,3.80
2018-02-25T19:30:08.907Z,3.77
2018-02-25T19:32:36.530Z,3.57
2018-02-25T19:35:04.203Z,4.00
2018-02-25T19:37:47.464Z,3.97
2018-02-25T19:40:15.080Z,3.77
2018-02-25T19:42:42.704Z,3.77
2018-02-25T19:45:10.319Z,4.70
2018-02-25T19:47:37.908Z,3.60
2018-02-25T19:50:05.570Z,3.47
2018-02-25T19:52:33.185Z,4.00
2018-02-25T19:55:01.536Z,4.07
2018-02-25T19:57:29.146Z,3.90
2018-02-25T19:59:57.489Z,3.43
2018-02-25T20:02:25.130Z,3.23
2018-02-25T20:04:52.743Z,3.97
2018-02-25T20:07:21.107Z,4.47
2018-02-25T20:09:48.779Z,4.00
2018-02-25T20:12:16.372Z,3.90
2018-02-25T20:14:44.732Z,3.87
2018-02-25T20:17:12.318Z,3.67
2018-02-25T20:19:40.736Z,3.83
2018-02-25T20:22:09.102Z,3.67
2018-02-25T20:24:36.733Z,4.10
2018-02-25T20:27:05.261Z,3.50
2018-02-25T20:29:32.871Z,3.73
2018-02-25T20:32:00.482Z,3.57
2018-02-25T20:34:28.078Z,4.00
2018-02-25T20:36:56.477Z,3.77
2018-02-25T20:39:24.085Z,4.00
2018-02-25T20:41:52.445Z,3.67
2018-02-25T20:44:20.832Z,4.37
2018-02-25T20:46:48.397Z,3.87
2018-02-25T20:49:15.994Z,3.83
2018-02-25T20:51:43.602Z,4.37
2018-02-25T20:54:11.172Z,3.67
2018-02-25T20:56:38.801Z,4.20
2018-02-25T20:59:06.426Z,4.00
2018-02-25T21:01:34.797Z,4.17
2018-02-25T21:04:02.392Z,3.90
2018-02-25T21:06:29.979Z,3.97
2018-02-25T21:08:57.563Z,4.13
2018-02-25T21:11:25.139Z,4.30
2018-02-25T21:13:52.737Z,5.20
2018-02-25T21:16:21.079Z,4.47
2018-02-25T21:18:48.677Z,4.60
2018-02-25T21:21:17.173Z,4.57
2018-02-25T21:23:45.531Z,4.30
2018-02-25T21:26:13.117Z,4.90
2018-02-25T21:28:41.512Z,4.63
2018-02-25T21:31:09.879Z,4.77
2018-02-25T21:33:38.973Z,4.90
2018-02-25T21:36:07.324Z,4.90
2018-02-25T21:38:34.942Z,5.40
2018-02-25T21:41:03.334Z,5.53
2018-02-25T21:43:30.933Z,5.30
2018-02-25T21:45:58.562Z,5.47
2018-02-25T21:48:26.148Z,5.70
2018-02-25T21:50:53.753Z,5.23
2018-02-25T21:53:21.413Z,5.50
2018-02-25T21:55:54.709Z,5.67
2018-02-25T21:58:27.842Z,5.70
2018-02-25T22:01:01.195Z,6.20
2018-02-25T22:03:34.408Z,5.70
2018-02-25T22:06:02.140Z,5.70
2018-02-25T22:08:29.740Z,5.93
2018-02-25T22:10:57.345Z,6.90
2018-02-25T22:13:24.936Z,6.70
2018-02-25T22:15:52.558Z,6.77
2018-02-25T22:18:20.149Z,6.70
2018-02-25T22:20:47.803Z,6.57
2018-02-25T22:23:15.401Z,6.43
2018-02-25T22:25:43.016Z,6.57
2018-02-25T22:28:11.354Z,6.13
2018-02-25T22:30:39.062Z,7.30
2018-02-25T22:33:07.406Z,6.37
2018-02-25T22:35:35.038Z,7.60
2018-02-25T22:38:02.632Z,7.27
2018-02-25T22:40:30.316Z,7.00
2018-02-25T22:42:58.664Z,7.97
2018-02-25T22:45:26.291Z,6.97
2018-02-25T22:47:54.731Z,7.87
2018-02-25T22:50:23.189Z,7.47
2018-02-25T22:52:50.829Z,8.17
2018-02-25T22:55:19.905Z,7.73
2018-02-25T22:57:47.498Z,7.70
2018-02-25T23:00:21.810Z,8.67
2018-02-25T23:02:50.260Z,8.17
2018-02-25T23:05:18.653Z,7.67
2018-02-25T23:07:46.242Z,7.60
2018-02-25T23:10:13.856Z,8.00
2018-02-25T23:12:42.345Z,7.67
2018-02-25T23:15:10.754Z,8.03
2018-02-25T23:17:38.386Z,7.63
2018-02-25T23:20:06.029Z,7.87
2018-02-25T23:22:33.663Z,8.27
2018-02-25T23:25:01.281Z,8.20
2018-02-25T23:27:29.669Z,8.60
2018-02-25T23:29:57.286Z,7.87
2018-02-25T23:32:25.655Z,8.60
2018-02-25T23:34:53.289Z,7.00
2018-02-25T23:37:20.967Z,8.00
2018-02-25T23:39:48.594Z,7.63
2018-02-25T23:42:16.219Z,7.47
2018-02-25T23:44:43.954Z,7.63
2018-02-25T23:47:11.626Z,7.73
2018-02-25T23:49:39.270Z,8.10
2018-02-25T23:52:06.862Z,7.63
2018-02-25T23:54:34.460Z,7.60
2018-02-25T23:57:02.051Z,7.67
2018-02-25T23:59:29.645Z,7.50
